Ridgecrest, CA

8:07 PM PDT on April 25, 2017 (GMT -0700)
StudioForge | | Change Station

Elev 2313 ft 35.63 °N, 117.68 °W | Updated 1 minute ago

Partly Cloudy
Partly Cloudy
68.2 °F
Feels Like 68.2 °F
N
3.8
Wind Variable Wind from West
Gusts 5.4 mph

Today
High -- | Low -- °F
--% Chance of Precip.
Yesterday
High -- | Low -- °F
Precip. -- in
Pressure 29.80 in
Visibility 10.0 miles
Clouds Few 25000 ft
Scattered Clouds 30000 ft
Dew Point 29 °F
Humidity 23%
Rainfall 0.00 in
Snow Depth Not available.
6:05 AM 7:32 PM
Waning Crescent, 0% visible
METAR KNID 260256Z 21009KT 10SM FEW250 SCT300 21/M01 A2983 RMK AO2 SLP090 T02061006 53010 $
Pressure 29.80 in
Visibility 10.0 miles
Clouds Few 25000 ft
Scattered Clouds 30000 ft
Dew Point 29 °F
Humidity 23%
Rainfall 0.00 in
Snow Depth Not available.
6:05 AM 7:32 PM
Waning Crescent, 0% visible
METAR KNID 260256Z 21009KT 10SM FEW250 SCT300 21/M01 A2983 RMK AO2 SLP090 T02061006 53010 $

Get Severe Weather Alerts

Thanks for signing up!

Be on the lookout for a verification email in your inbox.

You'll start receiving the daily forecast at 8 AM.

×

10-Day Weather Forecast

Almanac

Astronomy

Apr. 25, 2017 Rise Set
Actual Time
Civil Twilight
Nautical Twilight
Astronomical Twilight
Moon
Length of Visible Light
Length of Day
Tomorrow will be .
, % of the Moon is Illuminated

Today's Extremes

State Highs State Lows

Community

WunderPhotos

WunderBlog® & News

Nearby

Air Quality

  Air Quality AQ Index Pollutant
Not available.

Snow Depth

Station Depth Elevation

Earthquake Activity

City Distance Mag. Time & Date
Minimum magnitude displayed is 2.5.

Coastal Water Temperatures

Place Temperature

Stations

Nearby Weather Stations

Station Location Temp. Windchill Dew Point Humidity Wind Precip. Elev Updated Type
                   

Watches & Warnings

There are currently no watches in effect.